createdAt,value
2018-12-20T00:02:53.919Z,97550.00
2018-12-20T00:06:56.316Z,97541.00
2018-12-20T00:10:58.810Z,97537.00
2018-12-20T00:15:01.065Z,97537.00
2018-12-20T00:19:03.429Z,97528.00
2018-12-20T00:23:05.710Z,97537.00
2018-12-20T00:27:08.214Z,97530.00
2018-12-20T00:31:13.708Z,97523.00
2018-12-20T00:35:12.925Z,97522.00
2018-12-20T00:39:15.236Z,97528.00
2018-12-20T00:43:17.959Z,97530.00
2018-12-20T00:47:20.287Z,97525.00
2018-12-20T00:51:22.754Z,97536.00
2018-12-20T00:55:25.050Z,97531.00
2018-12-20T00:59:27.508Z,97533.00
2018-12-20T01:03:29.861Z,97530.00
2018-12-20T01:07:32.258Z,97418.00
2018-12-20T01:11:34.728Z,97528.00
2018-12-20T01:15:37.081Z,97539.00
2018-12-20T01:19:39.440Z,97540.00
2018-12-20T01:23:41.849Z,97539.00
2018-12-20T01:27:44.281Z,97555.00
2018-12-20T01:31:46.579Z,97556.00
2018-12-20T01:35:49.041Z,97565.00
2018-12-20T01:39:51.401Z,97558.00
2018-12-20T01:43:53.714Z,97561.00
2018-12-20T01:47:56.060Z,97565.00
2018-12-20T01:51:58.540Z,97575.00
2018-12-20T01:56:01.102Z,97574.00
2018-12-20T02:00:06.027Z,97573.00
2018-12-20T02:04:08.441Z,97578.00
2018-12-20T02:08:11.344Z,97584.00
2018-12-20T02:12:13.740Z,97579.00
2018-12-20T02:16:16.097Z,97581.00
2018-12-20T02:20:18.526Z,97573.00
2018-12-20T02:24:21.071Z,97564.00
2018-12-20T02:28:23.377Z,97555.00
2018-12-20T02:32:25.823Z,97568.00
2018-12-20T02:36:28.284Z,97560.00
2018-12-20T02:40:30.522Z,97566.00
2018-12-20T02:44:32.900Z,97570.00
2018-12-20T02:48:35.210Z,97560.00
2018-12-20T02:52:37.607Z,97553.00
2018-12-20T02:56:39.942Z,97548.00
2018-12-20T03:00:42.297Z,97546.00
2018-12-20T03:04:44.663Z,97539.00
2018-12-20T03:08:47.162Z,97533.00
2018-12-20T03:12:49.397Z,97532.00
2018-12-20T03:16:51.752Z,97534.00
2018-12-20T03:20:54.245Z,97526.00
2018-12-20T03:24:56.900Z,97533.00
2018-12-20T03:28:59.068Z,97543.00
2018-12-20T03:33:01.851Z,97535.00
2018-12-20T03:37:03.898Z,97543.00
2018-12-20T03:41:06.268Z,97540.00
2018-12-20T03:45:08.640Z,97533.00
2018-12-20T03:49:10.963Z,97532.00
2018-12-20T03:53:13.514Z,97530.00
2018-12-20T03:57:15.687Z,97535.00
2018-12-20T04:01:18.001Z,97515.00
2018-12-20T04:05:21.425Z,97520.00
2018-12-20T04:09:23.890Z,97525.00
2018-12-20T04:13:26.346Z,97528.00
2018-12-20T04:17:28.697Z,97524.00
2018-12-20T04:21:31.573Z,97517.00
2018-12-20T04:25:33.934Z,97533.00
2018-12-20T04:29:36.339Z,97529.00
2018-12-20T04:33:38.383Z,97541.00
2018-12-20T04:37:40.720Z,97455.00
2018-12-20T04:41:43.067Z,97548.00
2018-12-20T04:45:46.783Z,97540.00
2018-12-20T04:49:47.861Z,97533.00
2018-12-20T04:53:50.153Z,97529.00
2018-12-20T04:57:52.458Z,97532.00
2018-12-20T05:01:54.904Z,97540.00
2018-12-20T05:05:57.191Z,97539.00
2018-12-20T05:09:59.824Z,97543.00
2018-12-20T05:14:02.136Z,97536.00
2018-12-20T05:18:04.530Z,97545.00
2018-12-20T05:22:06.900Z,97546.00
2018-12-20T05:26:09.498Z,97549.00
2018-12-20T05:30:11.745Z,97548.00
2018-12-20T05:34:14.007Z,97540.00
2018-12-20T05:38:16.385Z,97539.00
2018-12-20T05:42:18.782Z,97545.00
2018-12-20T05:46:21.067Z,97544.00
2018-12-20T05:50:24.427Z,97552.00
2018-12-20T05:54:26.668Z,97548.00
2018-12-20T05:58:29.044Z,97543.00
2018-12-20T06:02:31.335Z,97541.00
2018-12-20T06:06:33.679Z,97545.00
2018-12-20T06:10:36.268Z,97553.00
2018-12-20T06:14:38.763Z,97552.00
2018-12-20T06:18:40.940Z,97549.00
2018-12-20T06:22:43.231Z,97550.00
2018-12-20T06:26:45.589Z,97563.00
2018-12-20T06:30:47.927Z,97564.00
2018-12-20T06:34:50.261Z,97566.00
2018-12-20T06:38:52.611Z,97574.00
2018-12-20T06:42:54.955Z,97563.00
2018-12-20T06:46:57.247Z,97564.00
2018-12-20T06:50:59.621Z,97567.00
2018-12-20T06:55:01.984Z,97576.00
2018-12-20T06:59:04.325Z,97584.00
2018-12-20T07:03:06.684Z,97582.00
2018-12-20T07:07:09.078Z,97585.00
2018-12-20T07:11:11.453Z,97585.00
2018-12-20T07:15:13.843Z,97586.00
2018-12-20T07:19:16.176Z,97573.00
2018-12-20T07:23:18.466Z,97578.00
2018-12-20T07:27:20.958Z,97582.00
2018-12-20T07:31:23.351Z,97586.00
2018-12-20T07:35:25.790Z,97579.00
2018-12-20T07:39:28.169Z,97582.00
2018-12-20T07:43:30.520Z,97576.00
2018-12-20T07:47:32.921Z,97584.00
2018-12-20T07:51:35.279Z,97585.00
2018-12-20T07:55:37.651Z,97580.00
2018-12-20T07:59:40.300Z,97592.00
2018-12-20T08:03:42.620Z,97587.00
2018-12-20T08:07:44.926Z,97595.00
2018-12-20T08:11:47.370Z,97602.00
2018-12-20T08:15:50.711Z,97600.00
2018-12-20T08:19:52.163Z,97605.00
2018-12-20T08:23:54.481Z,97614.00
2018-12-20T08:27:56.842Z,97626.00
2018-12-20T08:31:59.205Z,97615.00
2018-12-20T08:36:01.589Z,97616.00
2018-12-20T08:40:04.831Z,97625.00
2018-12-20T08:44:07.156Z,97642.00
2018-12-20T08:48:09.498Z,97638.00
2018-12-20T08:52:11.831Z,97646.00
2018-12-20T08:56:14.302Z,97659.00
2018-12-20T09:00:23.201Z,97656.00
2018-12-20T09:04:25.526Z,97660.00
2018-12-20T09:08:27.894Z,97662.00
2018-12-20T09:12:30.247Z,97664.00
2018-12-20T09:16:32.636Z,97647.00
2018-12-20T09:20:35.006Z,97668.00
2018-12-20T09:24:37.348Z,97667.00
2018-12-20T09:28:39.714Z,97671.00
2018-12-20T09:32:42.059Z,97669.00
2018-12-20T09:36:44.429Z,97671.00
2018-12-20T09:40:46.770Z,97675.00
2018-12-20T09:44:49.131Z,97676.00
2018-12-20T09:48:51.491Z,97680.00
2018-12-20T09:52:53.841Z,97677.00
2018-12-20T09:56:56.203Z,97677.00
2018-12-20T10:00:58.508Z,97680.00
2018-12-20T10:05:03.954Z,97674.00
2018-12-20T10:09:07.059Z,97676.00
2018-12-20T10:13:09.419Z,97690.00
2018-12-20T10:17:19.678Z,97686.00
2018-12-20T10:21:14.168Z,97681.00
2018-12-20T10:25:16.534Z,97679.00
2018-12-20T10:29:18.970Z,97675.00
2018-12-20T10:33:21.497Z,97678.00
2018-12-20T10:37:23.883Z,97671.00
2018-12-20T10:41:26.210Z,97672.00
2018-12-20T10:45:28.595Z,97665.00
2018-12-20T10:49:30.994Z,97654.00
2018-12-20T10:53:33.435Z,97648.00
2018-12-20T10:57:35.820Z,97651.00
2018-12-20T11:02:41.806Z,97652.00
2018-12-20T11:06:49.705Z,97659.00
2018-12-20T11:10:57.610Z,97650.00
2018-12-20T11:15:00.084Z,97640.00
2018-12-20T11:19:02.468Z,97637.00
2018-12-20T11:23:04.938Z,97631.00
2018-12-20T11:27:07.333Z,97629.00
2018-12-20T11:31:11.004Z,97627.00
2018-12-20T11:35:12.113Z,97626.00
2018-12-20T11:39:14.438Z,97627.00
2018-12-20T11:43:16.799Z,97624.00
2018-12-20T11:47:33.920Z,97625.00
2018-12-20T11:51:36.369Z,97616.00
2018-12-20T11:55:38.754Z,97617.00
2018-12-20T11:59:41.101Z,97609.00
2018-12-20T12:03:43.511Z,97594.00
2018-12-20T12:07:45.980Z,97611.00
2018-12-20T12:11:48.409Z,97612.00
2018-12-20T12:15:50.816Z,97606.00
2018-12-20T12:19:53.153Z,97602.00
2018-12-20T12:23:57.396Z,97606.00
2018-12-20T12:27:59.883Z,97609.00
2018-12-20T12:32:02.238Z,97610.00
2018-12-20T12:36:04.620Z,97607.00
2018-12-20T12:40:08.460Z,97609.00
2018-12-20T12:44:11.242Z,97607.00
2018-12-20T12:48:14.153Z,97613.00
2018-12-20T12:52:16.858Z,97608.00
2018-12-20T12:56:19.364Z,97619.00
2018-12-20T13:00:22.009Z,97633.00
2018-12-20T13:04:24.509Z,97627.00
2018-12-20T13:08:27.154Z,97628.00
2018-12-20T13:12:29.509Z,97623.00
2018-12-20T13:16:32.097Z,97620.00
2018-12-20T13:20:34.521Z,97624.00
2018-12-20T13:24:36.907Z,97623.00
2018-12-20T13:28:39.303Z,97626.00
2018-12-20T13:32:41.628Z,97628.00
2018-12-20T13:36:44.038Z,97633.00
2018-12-20T13:40:46.418Z,97629.00
2018-12-20T13:44:48.827Z,97636.00
2018-12-20T13:48:51.232Z,97645.00
2018-12-20T13:52:53.961Z,97632.00
2018-12-20T13:56:55.974Z,97628.00
2018-12-20T14:00:58.419Z,97636.00
2018-12-20T14:05:00.793Z,97633.00
2018-12-20T14:09:03.967Z,97640.00
2018-12-20T14:13:06.419Z,97654.00
2018-12-20T14:17:08.928Z,97655.00
2018-12-20T14:21:12.002Z,97656.00
2018-12-20T14:25:13.936Z,97651.00
2018-12-20T14:29:16.321Z,97649.00
2018-12-20T14:33:18.678Z,97653.00
2018-12-20T14:37:21.739Z,97653.00
2018-12-20T14:41:24.261Z,97652.00
2018-12-20T14:45:26.696Z,97652.00
2018-12-20T14:49:30.541Z,97652.00
2018-12-20T14:53:33.029Z,97655.00
2018-12-20T14:57:35.366Z,97645.00
2018-12-20T15:01:38.025Z,97640.00
2018-12-20T15:05:40.576Z,97654.00
2018-12-20T15:09:42.923Z,97649.00
2018-12-20T15:13:45.286Z,97654.00
2018-12-20T15:17:47.703Z,97697.00
2018-12-20T15:21:50.087Z,97660.00
2018-12-20T15:25:52.479Z,97663.00
2018-12-20T15:29:54.822Z,97674.00
2018-12-20T15:33:57.230Z,97630.00
2018-12-20T15:37:59.616Z,97674.00
2018-12-20T15:42:02.008Z,97674.00
2018-12-20T15:46:04.384Z,97675.00
2018-12-20T15:50:08.605Z,97672.00
2018-12-20T15:54:11.186Z,97674.00
2018-12-20T15:58:13.672Z,97680.00
2018-12-20T16:02:16.097Z,97685.00
2018-12-20T16:06:18.431Z,97695.00
2018-12-20T16:10:20.756Z,97687.00
2018-12-20T16:14:23.700Z,97685.00
2018-12-20T16:18:26.160Z,97692.00
2018-12-20T16:22:28.672Z,97691.00
2018-12-20T16:26:31.072Z,97702.00
2018-12-20T16:30:33.525Z,97709.00
2018-12-20T16:34:35.985Z,97700.00
2018-12-20T16:38:38.441Z,97705.00
2018-12-20T16:42:41.136Z,97713.00
2018-12-20T16:46:43.529Z,97726.00
2018-12-20T16:50:46.320Z,97732.00
2018-12-20T16:54:48.746Z,97722.00
2018-12-20T16:58:51.155Z,97737.00
2018-12-20T17:02:53.645Z,97727.00
2018-12-20T17:06:56.081Z,97727.00
2018-12-20T17:10:58.482Z,97733.00
2018-12-20T17:15:00.893Z,97731.00
2018-12-20T17:19:03.323Z,97731.00
2018-12-20T17:23:05.710Z,97747.00
2018-12-20T17:27:08.129Z,97743.00
2018-12-20T17:31:10.499Z,97671.00
2018-12-20T17:35:12.990Z,97744.00
2018-12-20T17:39:15.559Z,97748.00
2018-12-20T17:43:17.918Z,97748.00
2018-12-20T17:47:20.353Z,97752.00
2018-12-20T17:51:22.851Z,97749.00
2018-12-20T17:55:25.274Z,97752.00
2018-12-20T17:59:27.671Z,97744.00
2018-12-20T18:03:30.006Z,97746.00
2018-12-20T18:07:36.159Z,97744.00
2018-12-20T18:11:38.575Z,97749.00
2018-12-20T18:15:40.931Z,97757.00
2018-12-20T18:19:43.395Z,97758.00
2018-12-20T18:23:45.858Z,97754.00
2018-12-20T18:27:48.198Z,97754.00
2018-12-20T18:31:50.553Z,97747.00
2018-12-20T18:35:53.030Z,97742.00
2018-12-20T18:39:55.748Z,97747.00
2018-12-20T18:43:58.189Z,97749.00
2018-12-20T18:48:00.904Z,97753.00
2018-12-20T18:52:03.335Z,97754.00
2018-12-20T18:56:06.068Z,97762.00
2018-12-20T19:00:09.585Z,97754.00
2018-12-20T19:04:12.000Z,97758.00
2018-12-20T19:08:14.751Z,97755.00
2018-12-20T19:12:17.235Z,97766.00
2018-12-20T19:16:20.601Z,97770.00
2018-12-20T19:20:23.265Z,97771.00
2018-12-20T19:24:26.022Z,97758.00
2018-12-20T19:28:28.650Z,97750.00
2018-12-20T19:32:31.055Z,97759.00
2018-12-20T19:36:33.690Z,97761.00
2018-12-20T19:40:36.303Z,97752.00
2018-12-20T19:44:38.694Z,97759.00
2018-12-20T19:48:41.228Z,97780.00
2018-12-20T19:52:44.543Z,97766.00
2018-12-20T19:56:47.071Z,97770.00
2018-12-20T20:00:49.793Z,97756.00
2018-12-20T20:04:52.190Z,97768.00
2018-12-20T20:08:54.796Z,97758.00
2018-12-20T20:12:57.553Z,97756.00
2018-12-20T20:17:00.383Z,97748.00
2018-12-20T20:21:03.980Z,97743.00
2018-12-20T20:25:07.375Z,97745.00
2018-12-20T20:29:09.971Z,97748.00
2018-12-20T20:33:12.461Z,97748.00
2018-12-20T20:37:14.820Z,97747.00
2018-12-20T20:41:17.205Z,97753.00
2018-12-20T20:45:19.695Z,97748.00
2018-12-20T20:49:22.219Z,97758.00
2018-12-20T20:53:24.961Z,97743.00
2018-12-20T20:57:27.483Z,97741.00
2018-12-20T21:01:29.862Z,97745.00
2018-12-20T21:05:32.298Z,97736.00
2018-12-20T21:09:34.736Z,97737.00
2018-12-20T21:13:37.175Z,97739.00
2018-12-20T21:17:39.607Z,97733.00
2018-12-20T21:21:41.996Z,97731.00
2018-12-20T21:25:44.331Z,97745.00
2018-12-20T21:29:46.919Z,97740.00
2018-12-20T21:33:49.388Z,97744.00
2018-12-20T21:37:51.680Z,97652.00
2018-12-20T21:41:54.065Z,97746.00
2018-12-20T21:45:56.504Z,97752.00
2018-12-20T21:49:58.930Z,97748.00
2018-12-20T21:54:01.352Z,97751.00
2018-12-20T21:58:03.708Z,97751.00
2018-12-20T22:02:07.452Z,97752.00
2018-12-20T22:06:09.878Z,97749.00
2018-12-20T22:10:12.288Z,97751.00
2018-12-20T22:14:14.735Z,97758.00
2018-12-20T22:18:17.168Z,97754.00
2018-12-20T22:22:19.548Z,97752.00
2018-12-20T22:26:21.985Z,97747.00
2018-12-20T22:30:24.307Z,97754.00
2018-12-20T22:34:26.690Z,97749.00
2018-12-20T22:38:29.129Z,97755.00
2018-12-20T22:42:31.539Z,97775.00
2018-12-20T22:46:33.928Z,97774.00
2018-12-20T22:50:36.289Z,97772.00
2018-12-20T22:54:38.655Z,97770.00
2018-12-20T22:58:41.118Z,97755.00
2018-12-20T23:02:43.557Z,97767.00
2018-12-20T23:06:47.106Z,97773.00
2018-12-20T23:10:49.543Z,97759.00
2018-12-20T23:14:51.973Z,97751.00
2018-12-20T23:18:54.354Z,97752.00
2018-12-20T23:22:56.698Z,97751.00
2018-12-20T23:26:59.094Z,97732.00
2018-12-20T23:31:01.465Z,97745.00
2018-12-20T23:35:04.171Z,97741.00
2018-12-20T23:39:06.658Z,97754.00
2018-12-20T23:43:09.069Z,97739.00
2018-12-20T23:47:11.418Z,97739.00
2018-12-20T23:51:14.017Z,97744.00
2018-12-20T23:55:16.189Z,97729.00
2018-12-20T23:59:18.578Z,97733.00
